sensor_id;sensor_type;location;lat;lon;timestamp;pressure;altitude;pressure_sealevel;temperature;humidity
76940;BME280;65885;55.848;35.916;2023-07-09T00:02:15;99108.53;;;12.78;74.02
76940;BME280;65885;55.848;35.916;2023-07-09T00:04:43;99097.41;;;12.73;74.40
76940;BME280;65885;55.848;35.916;2023-07-09T00:07:17;99101.13;;;12.69;74.63
76940;BME280;65885;55.848;35.916;2023-07-09T00:09:45;99097.81;;;12.66;74.60
76940;BME280;65885;55.848;35.916;2023-07-09T00:12:14;99101.47;;;12.63;75.08
76940;BME280;65885;55.848;35.916;2023-07-09T00:14:43;99100.69;;;12.61;75.17
76940;BME280;65885;55.848;35.916;2023-07-09T00:17:17;99093.84;;;12.59;75.47
76940;BME280;65885;55.848;35.916;2023-07-09T00:19:45;99098.25;;;12.58;76.21
76940;BME280;65885;55.848;35.916;2023-07-09T00:22:15;99096.56;;;12.57;76.09
76940;BME280;65885;55.848;35.916;2023-07-09T00:24:44;99099.19;;;12.57;76.11
76940;BME280;65885;55.848;35.916;2023-07-09T00:27:12;99094.94;;;12.55;76.02
76940;BME280;65885;55.848;35.916;2023-07-09T00:29:40;99104.59;;;12.54;75.71
76940;BME280;65885;55.848;35.916;2023-07-09T00:32:12;99098.56;;;12.52;75.36
76940;BME280;65885;55.848;35.916;2023-07-09T00:34:42;99097.81;;;12.50;75.44
76940;BME280;65885;55.848;35.916;2023-07-09T00:37:15;99093.59;;;12.47;75.43
76940;BME280;65885;55.848;35.916;2023-07-09T00:39:44;99094.44;;;12.48;75.81
76940;BME280;65885;55.848;35.916;2023-07-09T00:42:12;99094.44;;;12.48;76.42
76940;BME280;65885;55.848;35.916;2023-07-09T00:44:44;99091.81;;;12.48;76.98
76940;BME280;65885;55.848;35.916;2023-07-09T00:47:37;99088.16;;;12.50;77.09
76940;BME280;65885;55.848;35.916;2023-07-09T00:50:17;99091.53;;;12.53;77.69
76940;BME280;65885;55.848;35.916;2023-07-09T00:52:51;99080.91;;;12.54;77.99
76940;BME280;65885;55.848;35.916;2023-07-09T00:55:23;99079.91;;;12.57;78.21
76940;BME280;65885;55.848;35.916;2023-07-09T00:58:00;99081.63;;;12.58;78.04
76940;BME280;65885;55.848;35.916;2023-07-09T01:00:39;99082.38;;;12.60;77.92
76940;BME280;65885;55.848;35.916;2023-07-09T01:03:20;99080.50;;;12.62;78.13
76940;BME280;65885;55.848;35.916;2023-07-09T01:05:48;99075.19;;;12.63;78.49
76940;BME280;65885;55.848;35.916;2023-07-09T01:08:18;99069.81;;;12.65;78.40
76940;BME280;65885;55.848;35.916;2023-07-09T01:10:47;99073.19;;;12.67;78.34
76940;BME280;65885;55.848;35.916;2023-07-09T01:13:15;99070.47;;;12.68;78.38
76940;BME280;65885;55.848;35.916;2023-07-09T01:15:45;99075.69;;;12.70;78.52
76940;BME280;65885;55.848;35.916;2023-07-09T01:18:14;99071.25;;;12.70;78.33
76940;BME280;65885;55.848;35.916;2023-07-09T01:20:41;99073.91;;;12.70;77.78
76940;BME280;65885;55.848;35.916;2023-07-09T01:23:10;99073.06;;;12.70;77.77
76940;BME280;65885;55.848;35.916;2023-07-09T01:25:42;99077.38;;;12.71;77.92
76940;BME280;65885;55.848;35.916;2023-07-09T01:28:10;99073.81;;;12.72;77.69
76940;BME280;65885;55.848;35.916;2023-07-09T01:30:39;99085.19;;;12.72;77.71
76940;BME280;65885;55.848;35.916;2023-07-09T01:33:07;99092.97;;;12.74;77.41
76940;BME280;65885;55.848;35.916;2023-07-09T01:35:37;99076.16;;;12.76;77.84
76940;BME280;65885;55.848;35.916;2023-07-09T01:38:07;99074.38;;;12.77;77.41
76940;BME280;65885;55.848;35.916;2023-07-09T01:40:36;99069.81;;;12.81;77.76
76940;BME280;65885;55.848;35.916;2023-07-09T01:43:04;99067.06;;;12.82;77.67
76940;BME280;65885;55.848;35.916;2023-07-09T01:45:34;99066.94;;;12.85;78.07
76940;BME280;65885;55.848;35.916;2023-07-09T01:48:03;99065.03;;;12.87;77.83
76940;BME280;65885;55.848;35.916;2023-07-09T01:50:30;99059.59;;;12.90;78.21
76940;BME280;65885;55.848;35.916;2023-07-09T01:52:58;99059.50;;;12.92;77.93
76940;BME280;65885;55.848;35.916;2023-07-09T01:55:27;99062.06;;;12.93;77.88
76940;BME280;65885;55.848;35.916;2023-07-09T01:57:57;99060.28;;;12.94;78.05
76940;BME280;65885;55.848;35.916;2023-07-09T02:00:24;99050.50;;;12.96;78.12
76940;BME280;65885;55.848;35.916;2023-07-09T02:02:51;99055.66;;;12.97;77.96
76940;BME280;65885;55.848;35.916;2023-07-09T02:05:20;99058.22;;;12.99;77.44
76940;BME280;65885;55.848;35.916;2023-07-09T02:07:47;99056.44;;;12.99;77.56
76940;BME280;65885;55.848;35.916;2023-07-09T02:10:16;99060.78;;;13.00;77.84
76940;BME280;65885;55.848;35.916;2023-07-09T02:12:45;99052.78;;;13.02;77.75
76940;BME280;65885;55.848;35.916;2023-07-09T02:15:15;99053.63;;;13.02;77.26
76940;BME280;65885;55.848;35.916;2023-07-09T02:17:44;99051.84;;;13.03;77.14
76940;BME280;65885;55.848;35.916;2023-07-09T02:20:12;99057.03;;;13.04;77.21
76940;BME280;65885;55.848;35.916;2023-07-09T02:22:40;99051.75;;;13.04;77.09
76940;BME280;65885;55.848;35.916;2023-07-09T02:25:08;99047.34;;;13.05;77.27
76940;BME280;65885;55.848;35.916;2023-07-09T02:27:36;99056.91;;;13.06;77.08
76940;BME280;65885;55.848;35.916;2023-07-09T02:30:04;99060.41;;;13.06;77.27
76940;BME280;65885;55.848;35.916;2023-07-09T02:32:34;99048.88;;;13.09;77.10
76940;BME280;65885;55.848;35.916;2023-07-09T02:35:01;99047.94;;;13.10;77.38
76940;BME280;65885;55.848;35.916;2023-07-09T02:37:31;99048.69;;;13.12;77.23
76940;BME280;65885;55.848;35.916;2023-07-09T02:39:59;99052.06;;;13.14;77.24
76940;BME280;65885;55.848;35.916;2023-07-09T02:42:26;99054.63;;;13.16;77.42
76940;BME280;65885;55.848;35.916;2023-07-09T02:44:53;99048.31;;;13.18;77.60
76940;BME280;65885;55.848;35.916;2023-07-09T02:47:21;99050.81;;;13.21;77.65
76940;BME280;65885;55.848;35.916;2023-07-09T02:49:49;99050.63;;;13.24;77.70
76940;BME280;65885;55.848;35.916;2023-07-09T02:52:17;99052.22;;;13.27;77.38
76940;BME280;65885;55.848;35.916;2023-07-09T02:54:44;99056.47;;;13.29;77.32
76940;BME280;65885;55.848;35.916;2023-07-09T02:57:12;99049.34;;;13.31;77.12
76940;BME280;65885;55.848;35.916;2023-07-09T02:59:39;99054.41;;;13.35;77.63
76940;BME280;65885;55.848;35.916;2023-07-09T03:02:06;99063.06;;;13.37;77.63
76940;BME280;65885;55.848;35.916;2023-07-09T03:04:34;99059.41;;;13.39;77.80
76940;BME280;65885;55.848;35.916;2023-07-09T03:07:03;99053.97;;;13.42;77.79
76940;BME280;65885;55.848;35.916;2023-07-09T03:09:30;99052.06;;;13.44;77.82
76940;BME280;65885;55.848;35.916;2023-07-09T03:11:58;99051.81;;;13.49;77.72
76940;BME280;65885;55.848;35.916;2023-07-09T03:14:25;99054.19;;;13.53;77.38
76940;BME280;65885;55.848;35.916;2023-07-09T03:16:53;99059.34;;;13.55;78.02
76940;BME280;65885;55.848;35.916;2023-07-09T03:19:21;99063.41;;;13.60;77.83
76940;BME280;65885;55.848;35.916;2023-07-09T03:21:49;99065.84;;;13.64;77.77
76940;BME280;65885;55.848;35.916;2023-07-09T03:24:17;99058.53;;;13.69;77.67
76940;BME280;65885;55.848;35.916;2023-07-09T03:26:45;99057.38;;;13.73;77.70
76940;BME280;65885;55.848;35.916;2023-07-09T03:29:13;99050.06;;;13.78;77.94
76940;BME280;65885;55.848;35.916;2023-07-09T03:31:40;99048.84;;;13.83;77.73
76940;BME280;65885;55.848;35.916;2023-07-09T03:34:08;99050.25;;;13.89;77.89
76940;BME280;65885;55.848;35.916;2023-07-09T03:36:35;99048.28;;;13.93;77.85
76940;BME280;65885;55.848;35.916;2023-07-09T03:39:03;99046.19;;;13.98;78.16
76940;BME280;65885;55.848;35.916;2023-07-09T03:41:32;99046.75;;;14.03;78.00
76940;BME280;65885;55.848;35.916;2023-07-09T03:44:00;99046.38;;;14.09;78.01
76940;BME280;65885;55.848;35.916;2023-07-09T03:46:27;99050.34;;;14.16;77.88
76940;BME280;65885;55.848;35.916;2023-07-09T03:48:55;99052.59;;;14.22;78.21
76940;BME280;65885;55.848;35.916;2023-07-09T03:51:22;99059.19;;;14.29;78.08
76940;BME280;65885;55.848;35.916;2023-07-09T03:53:49;99059.53;;;14.37;78.25
76940;BME280;65885;55.848;35.916;2023-07-09T03:56:17;99058.78;;;14.50;78.50
76940;BME280;65885;55.848;35.916;2023-07-09T03:58:46;99056.97;;;14.64;78.45
76940;BME280;65885;55.848;35.916;2023-07-09T04:01:13;99059.44;;;14.80;78.37
76940;BME280;65885;55.848;35.916;2023-07-09T04:03:42;99055.91;;;14.94;78.11
76940;BME280;65885;55.848;35.916;2023-07-09T04:06:09;99061.44;;;15.04;77.88
76940;BME280;65885;55.848;35.916;2023-07-09T04:08:36;99048.59;;;15.12;77.71
76940;BME280;65885;55.848;35.916;2023-07-09T04:11:04;99058.53;;;15.21;77.53
76940;BME280;65885;55.848;35.916;2023-07-09T04:13:31;99053.69;;;15.27;77.11
76940;BME280;65885;55.848;35.916;2023-07-09T04:16:00;99056.66;;;15.36;77.05
76940;BME280;65885;55.848;35.916;2023-07-09T04:18:27;99061.09;;;15.48;76.99
76940;BME280;65885;55.848;35.916;2023-07-09T04:20:55;99064.91;;;15.57;76.98
76940;BME280;65885;55.848;35.916;2023-07-09T04:23:22;99068.69;;;15.67;77.03
76940;BME280;65885;55.848;35.916;2023-07-09T04:25:50;99061.91;;;15.75;76.84
76940;BME280;65885;55.848;35.916;2023-07-09T04:28:17;99064.75;;;15.85;76.73
76940;BME280;65885;55.848;35.916;2023-07-09T04:30:48;99060.53;;;15.95;76.80
76940;BME280;65885;55.848;35.916;2023-07-09T04:33:18;99056.53;;;16.02;76.46
76940;BME280;65885;55.848;35.916;2023-07-09T04:35:46;99058.41;;;16.13;76.45
76940;BME280;65885;55.848;35.916;2023-07-09T04:38:14;99050.66;;;16.23;76.12
76940;BME280;65885;55.848;35.916;2023-07-09T04:40:41;99052.63;;;16.32;75.86
76940;BME280;65885;55.848;35.916;2023-07-09T04:43:09;99052.84;;;16.42;75.51
76940;BME280;65885;55.848;35.916;2023-07-09T04:45:36;99058.31;;;16.51;75.07
76940;BME280;65885;55.848;35.916;2023-07-09T04:48:04;99061.97;;;16.61;74.71
76940;BME280;65885;55.848;35.916;2023-07-09T04:50:33;99053.19;;;16.74;74.82
76940;BME280;65885;55.848;35.916;2023-07-09T04:53:01;99054.00;;;16.87;74.82
76940;BME280;65885;55.848;35.916;2023-07-09T04:55:29;99042.38;;;17.01;74.72
76940;BME280;65885;55.848;35.916;2023-07-09T04:57:56;99044.47;;;17.19;74.76
76940;BME280;65885;55.848;35.916;2023-07-09T05:00:24;99043.72;;;17.41;74.68
76940;BME280;65885;55.848;35.916;2023-07-09T05:02:51;99038.44;;;17.64;74.45
76940;BME280;65885;55.848;35.916;2023-07-09T05:05:18;99043.69;;;17.88;74.14
76940;BME280;65885;55.848;35.916;2023-07-09T05:07:47;99042.84;;;18.10;73.14
76940;BME280;65885;55.848;35.916;2023-07-09T05:10:16;99040.53;;;18.27;71.62
76940;BME280;65885;55.848;35.916;2023-07-09T05:12:52;99045.72;;;18.51;71.10
76940;BME280;65885;55.848;35.916;2023-07-09T05:15:21;99038.25;;;18.68;69.61
76940;BME280;65885;55.848;35.916;2023-07-09T05:17:49;99045.41;;;18.88;68.97
76940;BME280;65885;55.848;35.916;2023-07-09T05:20:16;99041.47;;;19.03;67.99
76940;BME280;65885;55.848;35.916;2023-07-09T05:22:44;99034.78;;;19.20;67.53
76940;BME280;65885;55.848;35.916;2023-07-09T05:25:13;99031.53;;;19.37;67.41
76940;BME280;65885;55.848;35.916;2023-07-09T05:27:40;99039.78;;;19.55;67.49
76940;BME280;65885;55.848;35.916;2023-07-09T05:30:09;99034.16;;;19.70;66.71
76940;BME280;65885;55.848;35.916;2023-07-09T05:32:37;99032.66;;;19.77;63.91
76940;BME280;65885;55.848;35.916;2023-07-09T05:35:05;99030.16;;;19.85;63.51
76940;BME280;65885;55.848;35.916;2023-07-09T05:37:33;99035.28;;;19.98;63.26
76940;BME280;65885;55.848;35.916;2023-07-09T05:40:00;99025.97;;;20.13;64.04
76940;BME280;65885;55.848;35.916;2023-07-09T05:42:32;99025.31;;;20.30;64.42
76940;BME280;65885;55.848;35.916;2023-07-09T05:45:00;99034.78;;;20.44;64.11
76940;BME280;65885;55.848;35.916;2023-07-09T05:47:31;99032.59;;;20.59;63.84
76940;BME280;65885;55.848;35.916;2023-07-09T05:49:58;99031.75;;;20.77;64.67
76940;BME280;65885;55.848;35.916;2023-07-09T05:52:27;99022.50;;;20.91;64.62
76940;BME280;65885;55.848;35.916;2023-07-09T05:54:55;99019.72;;;21.12;64.98
76940;BME280;65885;55.848;35.916;2023-07-09T05:57:23;99017.19;;;21.30;64.98
76940;BME280;65885;55.848;35.916;2023-07-09T05:59:52;99022.53;;;21.49;64.79
76940;BME280;65885;55.848;35.916;2023-07-09T06:02:21;99019.53;;;21.72;64.39
76940;BME280;65885;55.848;35.916;2023-07-09T06:04:48;99020.16;;;21.93;63.96
76940;BME280;65885;55.848;35.916;2023-07-09T06:07:16;99015.84;;;22.20;64.53
76940;BME280;65885;55.848;35.916;2023-07-09T06:09:44;99016.59;;;22.39;63.78
76940;BME280;65885;55.848;35.916;2023-07-09T06:12:12;99013.44;;;22.54;62.16
76940;BME280;65885;55.848;35.916;2023-07-09T06:14:39;99017.78;;;22.73;61.23
76940;BME280;65885;55.848;35.916;2023-07-09T06:17:09;99022.88;;;22.93;61.46
76940;BME280;65885;55.848;35.916;2023-07-09T06:19:37;99017.91;;;23.16;62.22
76940;BME280;65885;55.848;35.916;2023-07-09T06:22:05;99018.44;;;23.38;61.39
76940;BME280;65885;55.848;35.916;2023-07-09T06:24:32;99020.31;;;23.63;60.96
76940;BME280;65885;55.848;35.916;2023-07-09T06:27:00;98998.19;;;23.87;60.21
76940;BME280;65885;55.848;35.916;2023-07-09T06:29:27;99009.88;;;24.12;60.10
76940;BME280;65885;55.848;35.916;2023-07-09T06:31:54;99016.41;;;24.44;60.74
76940;BME280;65885;55.848;35.916;2023-07-09T06:34:23;99014.63;;;24.69;59.40
76940;BME280;65885;55.848;35.916;2023-07-09T06:36:50;99018.19;;;24.94;58.51
76940;BME280;65885;55.848;35.916;2023-07-09T06:39:18;99007.84;;;25.23;59.93
76940;BME280;65885;55.848;35.916;2023-07-09T06:41:46;99006.66;;;25.50;59.58
76940;BME280;65885;55.848;35.916;2023-07-09T06:44:14;98997.56;;;25.76;59.12
76940;BME280;65885;55.848;35.916;2023-07-09T06:46:42;99009.44;;;25.97;58.55
76940;BME280;65885;55.848;35.916;2023-07-09T06:49:11;99006.03;;;26.12;55.68
76940;BME280;65885;55.848;35.916;2023-07-09T06:51:40;99006.09;;;26.35;57.34
76940;BME280;65885;55.848;35.916;2023-07-09T06:54:08;99004.72;;;26.55;55.47
76940;BME280;65885;55.848;35.916;2023-07-09T06:56:36;98999.53;;;26.76;55.96
76940;BME280;65885;55.848;35.916;2023-07-09T06:59:03;99007.97;;;26.96;56.90
76940;BME280;65885;55.848;35.916;2023-07-09T07:01:30;99007.94;;;27.04;54.63
76940;BME280;65885;55.848;35.916;2023-07-09T07:03:58;99001.44;;;27.22;56.44
76940;BME280;65885;55.848;35.916;2023-07-09T07:06:26;98997.75;;;27.37;57.68
76940;BME280;65885;55.848;35.916;2023-07-09T07:08:55;98999.50;;;27.30;51.87
76940;BME280;65885;55.848;35.916;2023-07-09T07:11:22;98999.00;;;27.27;52.07
76940;BME280;65885;55.848;35.916;2023-07-09T07:13:50;98991.13;;;27.25;52.81
76940;BME280;65885;55.848;35.916;2023-07-09T07:16:18;98981.66;;;27.29;53.11
76940;BME280;65885;55.848;35.916;2023-07-09T07:18:45;98992.59;;;27.28;52.17
76940;BME280;65885;55.848;35.916;2023-07-09T07:21:13;98994.75;;;27.32;53.63
76940;BME280;65885;55.848;35.916;2023-07-09T07:23:41;98998.59;;;27.38;53.85
76940;BME280;65885;55.848;35.916;2023-07-09T07:26:09;98988.91;;;27.29;52.28
76940;BME280;65885;55.848;35.916;2023-07-09T07:28:37;98990.13;;;26.95;46.37
76940;BME280;65885;55.848;35.916;2023-07-09T07:31:06;98984.28;;;26.69;45.68
76940;BME280;65885;55.848;35.916;2023-07-09T07:33:34;98980.63;;;26.62;46.92
76940;BME280;65885;55.848;35.916;2023-07-09T07:36:04;98985.81;;;26.63;51.02
76940;BME280;65885;55.848;35.916;2023-07-09T07:38:31;98976.91;;;26.63;49.70
76940;BME280;65885;55.848;35.916;2023-07-09T07:40:59;98969.69;;;26.63;48.29
76940;BME280;65885;55.848;35.916;2023-07-09T07:43:28;98971.34;;;26.64;46.97
76940;BME280;65885;55.848;35.916;2023-07-09T07:45:56;98982.06;;;26.72;48.36
76940;BME280;65885;55.848;35.916;2023-07-09T07:48:23;98978.16;;;26.75;46.50
76940;BME280;65885;55.848;35.916;2023-07-09T07:50:50;98978.41;;;26.88;49.17
76940;BME280;65885;55.848;35.916;2023-07-09T07:53:18;98977.31;;;26.97;48.17
76940;BME280;65885;55.848;35.916;2023-07-09T07:55:45;98967.53;;;27.04;47.16
76940;BME280;65885;55.848;35.916;2023-07-09T07:58:13;98969.53;;;27.10;44.38
76940;BME280;65885;55.848;35.916;2023-07-09T08:00:42;98961.78;;;27.30;45.47
76940;BME280;65885;55.848;35.916;2023-07-09T08:03:09;98958.94;;;27.61;48.65
76940;BME280;65885;55.848;35.916;2023-07-09T08:05:37;98953.31;;;27.86;46.01
76940;BME280;65885;55.848;35.916;2023-07-09T08:08:04;98958.28;;;28.18;48.54
76940;BME280;65885;55.848;35.916;2023-07-09T08:10:32;98956.88;;;28.52;50.18
76940;BME280;65885;55.848;35.916;2023-07-09T08:12:59;98959.00;;;28.78;49.84
76940;BME280;65885;55.848;35.916;2023-07-09T08:15:27;98957.16;;;29.00;49.78
76940;BME280;65885;55.848;35.916;2023-07-09T08:17:56;98951.75;;;29.21;50.20
76940;BME280;65885;55.848;35.916;2023-07-09T08:20:24;98952.75;;;29.42;50.74
76940;BME280;65885;55.848;35.916;2023-07-09T08:22:51;98942.91;;;29.55;48.55
76940;BME280;65885;55.848;35.916;2023-07-09T08:25:18;98952.91;;;29.62;45.05
76940;BME280;65885;55.848;35.916;2023-07-09T08:27:46;98947.78;;;29.45;40.81
76940;BME280;65885;55.848;35.916;2023-07-09T08:30:13;98943.75;;;29.56;42.33
76940;BME280;65885;55.848;35.916;2023-07-09T08:32:41;98952.41;;;29.79;45.90
76940;BME280;65885;55.848;35.916;2023-07-09T08:35:10;98942.75;;;30.05;46.30
76940;BME280;65885;55.848;35.916;2023-07-09T08:37:38;98959.72;;;30.20;42.40
76940;BME280;65885;55.848;35.916;2023-07-09T08:40:10;98955.72;;;30.09;41.10
76940;BME280;65885;55.848;35.916;2023-07-09T08:42:42;98955.88;;;30.01;38.50
76940;BME280;65885;55.848;35.916;2023-07-09T08:45:24;98944.97;;;29.88;39.61
76940;BME280;65885;55.848;35.916;2023-07-09T08:48:01;98943.41;;;29.72;40.34
76940;BME280;65885;55.848;35.916;2023-07-09T08:50:36;98946.81;;;29.53;39.43
76940;BME280;65885;55.848;35.916;2023-07-09T08:53:11;98951.09;;;29.41;43.32
76940;BME280;65885;55.848;35.916;2023-07-09T08:55:42;98949.63;;;29.17;40.25
76940;BME280;65885;55.848;35.916;2023-07-09T08:58:14;98947.13;;;28.94;38.79
76940;BME280;65885;55.848;35.916;2023-07-09T09:00:46;98946.94;;;28.74;41.13
76940;BME280;65885;55.848;35.916;2023-07-09T09:03:23;98940.31;;;28.77;42.56
76940;BME280;65885;55.848;35.916;2023-07-09T09:05:56;98935.41;;;28.87;41.63
76940;BME280;65885;55.848;35.916;2023-07-09T09:08:40;98934.28;;;29.17;45.81
76940;BME280;65885;55.848;35.916;2023-07-09T09:11:14;98935.94;;;29.18;39.30
76940;BME280;65885;55.848;35.916;2023-07-09T09:13:43;98940.06;;;29.14;40.12
76940;BME280;65885;55.848;35.916;2023-07-09T09:16:20;98940.53;;;29.18;41.08
76940;BME280;65885;55.848;35.916;2023-07-09T09:18:50;98931.84;;;29.29;41.05
76940;BME280;65885;55.848;35.916;2023-07-09T09:21:26;98934.03;;;29.40;42.71
76940;BME280;65885;55.848;35.916;2023-07-09T09:23:58;98929.19;;;29.57;41.83
76940;BME280;65885;55.848;35.916;2023-07-09T09:26:30;98918.88;;;29.74;40.27
76940;BME280;65885;55.848;35.916;2023-07-09T09:28:57;98927.94;;;29.94;41.34
76940;BME280;65885;55.848;35.916;2023-07-09T09:31:27;98925.34;;;30.14;39.27
76940;BME280;65885;55.848;35.916;2023-07-09T09:33:54;98931.66;;;30.34;39.00
76940;BME280;65885;55.848;35.916;2023-07-09T09:36:25;98927.09;;;30.35;36.71
76940;BME280;65885;55.848;35.916;2023-07-09T09:38:53;98923.34;;;30.36;36.88
76940;BME280;65885;55.848;35.916;2023-07-09T09:41:22;98922.75;;;30.47;38.17
76940;BME280;65885;55.848;35.916;2023-07-09T09:43:52;98927.78;;;30.57;37.44
76940;BME280;65885;55.848;35.916;2023-07-09T09:46:21;98914.88;;;30.65;36.96
76940;BME280;65885;55.848;35.916;2023-07-09T09:48:51;98911.53;;;30.57;35.80
76940;BME280;65885;55.848;35.916;2023-07-09T09:51:20;98913.38;;;30.43;35.40
76940;BME280;65885;55.848;35.916;2023-07-09T09:53:51;98901.47;;;30.31;36.85
76940;BME280;65885;55.848;35.916;2023-07-09T09:56:20;98906.00;;;30.17;36.96
76940;BME280;65885;55.848;35.916;2023-07-09T09:58:53;98916.22;;;30.22;37.23
76940;BME280;65885;55.848;35.916;2023-07-09T10:01:26;98908.13;;;30.28;36.75
76940;BME280;65885;55.848;35.916;2023-07-09T10:03:56;98904.41;;;30.43;37.65
76940;BME280;65885;55.848;35.916;2023-07-09T10:06:33;98909.66;;;30.64;38.27
76940;BME280;65885;55.848;35.916;2023-07-09T10:09:06;98901.38;;;30.79;36.08
76940;BME280;65885;55.848;35.916;2023-07-09T10:11:45;98898.28;;;31.02;38.29
76940;BME280;65885;55.848;35.916;2023-07-09T10:14:27;98898.09;;;31.23;38.37
76940;BME280;65885;55.848;35.916;2023-07-09T10:17:00;98894.72;;;31.34;36.43
76940;BME280;65885;55.848;35.916;2023-07-09T10:19:35;98881.59;;;31.38;33.98
76940;BME280;65885;55.848;35.916;2023-07-09T10:22:10;98876.78;;;31.40;35.66
76940;BME280;65885;55.848;35.916;2023-07-09T10:24:52;98894.72;;;31.47;36.99
76940;BME280;65885;55.848;35.916;2023-07-09T10:27:28;98882.66;;;31.30;34.01
76940;BME280;65885;55.848;35.916;2023-07-09T10:32:53;98888.47;;;30.87;34.67
76940;BME280;65885;55.848;35.916;2023-07-09T10:35:32;98872.00;;;30.69;34.62
76940;BME280;65885;55.848;35.916;2023-07-09T10:38:10;98881.97;;;30.55;35.87
76940;BME280;65885;55.848;35.916;2023-07-09T10:40:46;98880.84;;;30.36;36.69
76940;BME280;65885;55.848;35.916;2023-07-09T10:43:18;98867.84;;;30.05;35.30
76940;BME280;65885;55.848;35.916;2023-07-09T10:45:49;98860.13;;;29.96;36.87
76940;BME280;65885;55.848;35.916;2023-07-09T10:48:34;98864.28;;;29.98;38.39
76940;BME280;65885;55.848;35.916;2023-07-09T10:51:15;98861.81;;;30.03;37.96
76940;BME280;65885;55.848;35.916;2023-07-09T10:53:46;98873.13;;;30.20;37.67
76940;BME280;65885;55.848;35.916;2023-07-09T10:56:20;98865.28;;;30.38;37.68
76940;BME280;65885;55.848;35.916;2023-07-09T10:58:53;98867.16;;;30.58;37.60
76940;BME280;65885;55.848;35.916;2023-07-09T11:01:29;98862.84;;;30.70;35.77
76940;BME280;65885;55.848;35.916;2023-07-09T11:04:02;98854.91;;;30.75;34.46
76940;BME280;65885;55.848;35.916;2023-07-09T11:06:34;98853.88;;;30.89;34.50
76940;BME280;65885;55.848;35.916;2023-07-09T11:09:06;98856.56;;;30.89;33.52
76940;BME280;65885;55.848;35.916;2023-07-09T11:11:45;98855.34;;;30.99;35.47
76940;BME280;65885;55.848;35.916;2023-07-09T11:14:23;98851.38;;;31.08;35.97
76940;BME280;65885;55.848;35.916;2023-07-09T11:16:53;98849.91;;;31.12;35.59
76940;BME280;65885;55.848;35.916;2023-07-09T11:19:22;98846.97;;;31.20;35.48
76940;BME280;65885;55.848;35.916;2023-07-09T11:22:03;98851.78;;;31.25;34.71
76940;BME280;65885;55.848;35.916;2023-07-09T11:24:34;98845.72;;;31.16;31.83
76940;BME280;65885;55.848;35.916;2023-07-09T11:27:19;98850.09;;;31.17;32.86
76940;BME280;65885;55.848;35.916;2023-07-09T11:29:48;98844.91;;;31.15;32.84
76940;BME280;65885;55.848;35.916;2023-07-09T11:32:22;98849.31;;;31.23;33.85
76940;BME280;65885;55.848;35.916;2023-07-09T11:34:50;98847.41;;;31.30;34.25
76940;BME280;65885;55.848;35.916;2023-07-09T11:37:17;98846.16;;;31.26;32.49
76940;BME280;65885;55.848;35.916;2023-07-09T11:39:47;98839.50;;;31.29;32.98
76940;BME280;65885;55.848;35.916;2023-07-09T11:42:48;98841.34;;;31.35;33.02
76940;BME280;65885;55.848;35.916;2023-07-09T11:45:19;98851.19;;;31.23;31.08
76940;BME280;65885;55.848;35.916;2023-07-09T11:47:52;98835.53;;;31.25;32.55
76940;BME280;65885;55.848;35.916;2023-07-09T11:50:23;98834.47;;;31.32;32.97
76940;BME280;65885;55.848;35.916;2023-07-09T11:52:55;98840.47;;;31.47;34.17
76940;BME280;65885;55.848;35.916;2023-07-09T11:55:37;98832.94;;;31.56;32.54
76940;BME280;65885;55.848;35.916;2023-07-09T11:58:10;98832.97;;;31.49;31.11
76940;BME280;65885;55.848;35.916;2023-07-09T12:00:40;98842.97;;;31.49;32.07
76940;BME280;65885;55.848;35.916;2023-07-09T12:03:10;98828.38;;;31.43;31.42
76940;BME280;65885;55.848;35.916;2023-07-09T12:05:49;98832.97;;;31.49;34.29
76940;BME280;65885;55.848;35.916;2023-07-09T12:08:20;98828.34;;;31.57;33.13
76940;BME280;65885;55.848;35.916;2023-07-09T12:10:50;98836.25;;;31.65;31.82
76940;BME280;65885;55.848;35.916;2023-07-09T12:13:18;98830.84;;;31.58;30.40
76940;BME280;65885;55.848;35.916;2023-07-09T12:15:46;98831.28;;;31.48;30.89
76940;BME280;65885;55.848;35.916;2023-07-09T12:18:15;98824.22;;;31.47;31.85
76940;BME280;65885;55.848;35.916;2023-07-09T12:20:49;98819.47;;;31.36;29.11
76940;BME280;65885;55.848;35.916;2023-07-09T12:23:21;98820.91;;;31.12;30.23
76940;BME280;65885;55.848;35.916;2023-07-09T12:25:50;98833.69;;;30.92;30.21
76940;BME280;65885;55.848;35.916;2023-07-09T12:28:21;98824.72;;;30.72;29.68
76940;BME280;65885;55.848;35.916;2023-07-09T12:30:51;98831.34;;;30.62;32.41
76940;BME280;65885;55.848;35.916;2023-07-09T12:33:20;98819.47;;;30.57;31.69
76940;BME280;65885;55.848;35.916;2023-07-09T12:35:56;98809.25;;;30.52;31.81
76940;BME280;65885;55.848;35.916;2023-07-09T12:38:25;98807.59;;;30.58;32.98
76940;BME280;65885;55.848;35.916;2023-07-09T12:40:54;98804.72;;;30.73;35.25
76940;BME280;65885;55.848;35.916;2023-07-09T12:43:25;98806.38;;;30.93;36.07
76940;BME280;65885;55.848;35.916;2023-07-09T12:45:56;98806.75;;;31.04;34.56
76940;BME280;65885;55.848;35.916;2023-07-09T12:48:26;98811.56;;;31.08;34.19
76940;BME280;65885;55.848;35.916;2023-07-09T12:50:55;98813.84;;;31.11;33.37
76940;BME280;65885;55.848;35.916;2023-07-09T12:53:25;98809.88;;;31.14;32.61
76940;BME280;65885;55.848;35.916;2023-07-09T12:55:55;98810.06;;;31.19;33.02
76940;BME280;65885;55.848;35.916;2023-07-09T12:58:27;98808.84;;;31.21;32.90
76940;BME280;65885;55.848;35.916;2023-07-09T13:00:56;98805.09;;;31.16;32.49
76940;BME280;65885;55.848;35.916;2023-07-09T13:03:27;98802.81;;;31.00;31.07
76940;BME280;65885;55.848;35.916;2023-07-09T13:05:57;98813.28;;;30.76;32.43
76940;BME280;65885;55.848;35.916;2023-07-09T13:08:25;98816.53;;;30.58;33.10